Time;durP1;ratioP1;P1;durP2;ratioP2;P2;SDS_P1;SDS_P2;PMS_P1;PMS_P2;Temp;Humidity;BMP_temperature;BMP_pressure;BME280_temperature;BME280_humidity;BME280_pressure;Samples;Min_cycle;Max_cycle;Signal;HPM_P1;HPM_P2
2022/05/26 00:01:53;;;;;;;5.28;1.98;;;;;;;;;;5010055;28;20028;-73
2022/05/26 00:04:19;;;;;;;2.72;1.77;;;;;;;;;;5004896;28;20065;-74
2022/05/26 00:06:45;;;;;;;4.13;1.80;;;;;;;;;;5008536;28;20034;-75
2022/05/26 00:09:11;;;;;;;3.13;1.80;;;;;;;;;;5004005;28;20029;-74
2022/05/26 00:11:38;;;;;;;7.68;2.20;;;;;;;;;;5010104;28;20092;-74
2022/05/26 00:14:07;;;;;;;1.73;1.58;;;;;;;;;;5019365;28;20080;-74
2022/05/26 00:16:37;;;;;;;3.40;1.70;;;;;;;;;;5014441;28;20480;-75
2022/05/26 00:19:03;;;;;;;6.68;2.13;;;;;;;;;;5011406;28;20472;-74
2022/05/26 00:21:29;;;;;;;5.78;2.13;;;;;;;;;;5026703;28;20053;-75
2022/05/26 00:23:56;;;;;;;4.47;1.77;;;;;;;;;;5009208;28;20045;-75
2022/05/26 00:26:22;;;;;;;4.28;1.90;;;;;;;;;;5008460;28;20073;-74
2022/05/26 00:28:48;;;;;;;5.70;2.17;;;;;;;;;;5008517;28;20121;-74
2022/05/26 00:31:14;;;;;;;3.50;2.00;;;;;;;;;;5006440;28;20025;-74
2022/05/26 00:33:41;;;;;;;3.10;2.13;;;;;;;;;;5012513;28;20056;-74
2022/05/26 00:36:09;;;;;;;5.22;2.08;;;;;;;;;;5014639;28;20069;-74
2022/05/26 00:38:35;;;;;;;9.82;2.65;;;;;;;;;;5016204;28;20026;-74
2022/05/26 00:41:02;;;;;;;5.97;1.70;;;;;;;;;;5019283;28;20041;-75
2022/05/26 00:43:29;;;;;;;4.45;1.95;;;;;;;;;;5010445;28;20027;-74
2022/05/26 00:45:58;;;;;;;5.30;1.83;;;;;;;;;;5015048;28;20121;-74
2022/05/26 00:48:26;;;;;;;4.18;1.67;;;;;;;;;;5015194;28;20032;-75
2022/05/26 00:50:56;;;;;;;6.10;1.92;;;;;;;;;;5013754;28;20038;-76
2022/05/26 00:53:24;;;;;;;2.90;1.80;;;;;;;;;;5012362;28;20029;-74
2022/05/26 00:55:55;;;;;;;5.30;2.88;;;;;;;;;;5011829;28;20092;-73
2022/05/26 00:58:28;;;;;;;4.85;2.95;;;;;;;;;;5007313;28;20046;-75
2022/05/26 01:00:54;;;;;;;4.45;1.95;;;;;;;;;;5004517;28;20021;-74
2022/05/26 01:03:26;;;;;;;3.55;1.85;;;;;;;;;;5012923;28;20030;-75
2022/05/26 01:06:00;;;;;;;4.78;2.00;;;;;;;;;;5005515;28;20054;-74
2022/05/26 01:08:30;;;;;;;4.07;2.42;;;;;;;;;;5011851;28;20080;-74
2022/05/26 01:10:56;;;;;;;4.95;2.58;;;;;;;;;;5007321;28;20037;-75
2022/05/26 01:13:22;;;;;;;3.38;1.98;;;;;;;;;;5012944;28;20033;-74
2022/05/26 01:16:08;;;;;;;5.03;2.08;;;;;;;;;;5012306;28;20164;-73
2022/05/26 01:18:42;;;;;;;3.75;2.10;;;;;;;;;;5010653;28;20032;-75
2022/05/26 01:21:08;;;;;;;4.50;1.98;;;;;;;;;;5006999;28;20425;-75
2022/05/26 01:23:49;;;;;;;4.65;2.10;;;;;;;;;;5009678;28;20503;-74
2022/05/26 01:26:23;;;;;;;4.63;2.10;;;;;;;;;;5023443;28;20048;-74
2022/05/26 01:28:52;;;;;;;3.75;2.83;;;;;;;;;;5001950;28;20082;-74
2022/05/26 01:31:43;;;;;;;6.88;2.83;;;;;;;;;;5008934;28;20499;-74
2022/05/26 01:34:20;;;;;;;3.60;2.40;;;;;;;;;;5010613;28;20412;-74
2022/05/26 01:36:46;;;;;;;6.00;2.20;;;;;;;;;;5011872;28;20064;-75
2022/05/26 01:39:19;;;;;;;3.30;2.05;;;;;;;;;;5014202;28;20104;-75
2022/05/26 01:41:45;;;;;;;3.65;2.00;;;;;;;;;;5005920;28;20037;-73
2022/05/26 01:44:30;;;;;;;4.97;2.20;;;;;;;;;;5011314;28;20344;-75
2022/05/26 01:47:00;;;;;;;8.25;2.75;;;;;;;;;;5003055;28;20034;-74
2022/05/26 01:49:32;;;;;;;3.47;1.85;;;;;;;;;;5012740;28;20041;-74
2022/05/26 01:52:10;;;;;;;3.80;1.98;;;;;;;;;;5013730;28;20519;-75
2022/05/26 01:54:36;;;;;;;4.78;2.00;;;;;;;;;;5017713;28;20034;-74
2022/05/26 01:57:02;;;;;;;7.40;2.55;;;;;;;;;;5005311;28;20029;-75
2022/05/26 01:59:37;;;;;;;4.60;2.30;;;;;;;;;;5013976;28;20160;-75
2022/05/26 02:02:03;;;;;;;;;;;;;;;;;;5011409;28;20030;-74
2022/05/26 02:04:49;;;;;;;2.80;2.25;;;;;;;;;;5015103;28;19917;-75
2022/05/26 02:07:25;;;;;;;5.78;2.10;;;;;;;;;;5011468;28;20030;-74
2022/05/26 02:09:53;;;;;;;3.95;2.55;;;;;;;;;;5013587;28;20033;-74
2022/05/26 02:12:29;;;;;;;4.80;2.80;;;;;;;;;;5027120;28;20023;-74
2022/05/26 02:14:59;;;;;;;7.05;2.65;;;;;;;;;;5019046;28;20022;-76
2022/05/26 02:18:01;;;;;;;4.90;2.15;;;;;;;;;;5010256;28;20014;-74
2022/05/26 02:20:38;;;;;;;4.45;2.65;;;;;;;;;;4989917;28;20040;-75
2022/05/26 02:23:11;;;;;;;5.47;3.22;;;;;;;;;;5003940;28;20042;-75
2022/05/26 02:25:38;;;;;;;7.75;2.50;;;;;;;;;;5006502;28;20030;-75
2022/05/26 02:28:05;;;;;;;4.82;2.35;;;;;;;;;;5015534;28;20052;-75
2022/05/26 02:30:34;;;;;;;5.38;2.13;;;;;;;;;;5011570;28;20076;-74
2022/05/26 02:33:00;;;;;;;7.65;2.95;;;;;;;;;;5014764;28;20026;-75
2022/05/26 02:35:31;;;;;;;9.70;2.63;;;;;;;;;;5017369;28;20033;-75
2022/05/26 02:38:01;;;;;;;9.10;3.47;;;;;;;;;;5014404;28;20369;-74
2022/05/26 02:40:28;;;;;;;4.45;2.83;;;;;;;;;;5013090;28;20034;-76
2022/05/26 02:42:59;;;;;;;6.82;2.50;;;;;;;;;;5010156;28;20112;-75
2022/05/26 02:45:44;;;;;;;10.70;3.22;;;;;;;;;;5012507;28;20049;-75
2022/05/26 02:48:33;;;;;;;4.47;2.47;;;;;;;;;;5024037;28;20118;-75
2022/05/26 02:51:02;;;;;;;5.57;2.50;;;;;;;;;;5008677;28;20169;-75
2022/05/26 02:53:31;;;;;;;5.70;2.42;;;;;;;;;;5010251;28;20030;-75
2022/05/26 02:55:58;;;;;;;5.32;2.50;;;;;;;;;;5008988;28;20500;-75
2022/05/26 02:58:39;;;;;;;5.30;2.70;;;;;;;;;;5011872;28;20033;-75
2022/05/26 03:01:11;;;;;;;4.63;2.90;;;;;;;;;;5012227;28;20029;-75
2022/05/26 03:03:37;;;;;;;4.55;2.70;;;;;;;;;;5009748;28;20038;-75
2022/05/26 03:06:21;;;;;;;5.50;2.40;;;;;;;;;;5008080;28;20030;-76
2022/05/26 03:08:48;;;;;;;3.08;2.25;;;;;;;;;;5010235;28;20435;-74
2022/05/26 03:11:18;;;;;;;6.15;2.72;;;;;;;;;;5009459;28;20481;-75
2022/05/26 03:13:44;;;;;;;6.63;3.55;;;;;;;;;;5013974;28;20041;-75
2022/05/26 03:16:10;;;;;;;6.40;2.90;;;;;;;;;;5010922;28;20033;-74
2022/05/26 03:18:36;;;;;;;3.92;2.30;;;;;;;;;;5010842;28;20064;-75
2022/05/26 03:21:04;;;;;;;4.53;2.38;;;;;;;;;;5012393;28;20026;-75
2022/05/26 03:23:30;;;;;;;6.60;2.60;;;;;;;;;;5018078;28;20037;-76
2022/05/26 03:25:57;;;;;;;6.88;2.63;;;;;;;;;;5016198;28;20030;-75
2022/05/26 03:28:27;;;;;;;4.10;2.10;;;;;;;;;;5010537;28;20132;-75
2022/05/26 03:30:54;;;;;;;4.75;2.30;;;;;;;;;;5009894;28;20018;-76
2022/05/26 03:33:20;;;;;;;3.22;2.30;;;;;;;;;;5007444;28;20537;-75
2022/05/26 03:41:18;;;;;;;2.97;2.10;;;;;;;;;;5007529;28;20180;-75
2022/05/26 03:43:47;;;;;;;3.97;2.10;;;;;;;;;;5011114;28;20038;-75
2022/05/26 03:46:13;;;;;;;8.40;2.33;;;;;;;;;;5011209;28;20077;-74
2022/05/26 03:48:40;;;;;;;4.05;2.08;;;;;;;;;;5012208;28;20117;-76
2022/05/26 03:51:07;;;;;;;8.50;2.35;;;;;;;;;;5007519;28;20388;-75
2022/05/26 03:53:36;;;;;;;3.80;2.13;;;;;;;;;;5010150;28;20029;-76
2022/05/26 03:56:03;;;;;;;3.78;3.35;;;;;;;;;;5010240;28;20028;-76
2022/05/26 03:58:30;;;;;;;5.88;2.42;;;;;;;;;;5010607;28;20037;-75
2022/05/26 04:01:00;;;;;;;3.50;1.77;;;;;;;;;;5011499;28;20041;-74
2022/05/26 04:03:26;;;;;;;5.60;3.08;;;;;;;;;;5013476;28;20484;-75
2022/05/26 04:05:52;;;;;;;9.18;3.55;;;;;;;;;;5011538;28;20040;-76
2022/05/26 04:08:18;;;;;;;3.75;2.20;;;;;;;;;;5013184;28;20030;-75
2022/05/26 04:10:45;;;;;;;4.10;1.95;;;;;;;;;;5013371;28;20429;-75
2022/05/26 04:13:11;;;;;;;5.80;2.10;;;;;;;;;;5008735;28;20049;-76
2022/05/26 04:15:38;;;;;;;2.88;2.00;;;;;;;;;;5008159;28;20491;-74
2022/05/26 04:18:04;;;;;;;2.75;2.00;;;;;;;;;;5004813;28;20108;-76
2022/05/26 04:20:30;;;;;;;6.97;2.22;;;;;;;;;;5010260;28;20022;-76
2022/05/26 04:22:56;;;;;;;2.28;2.08;;;;;;;;;;5009660;28;20034;-75
2022/05/26 04:25:25;;;;;;;5.53;2.20;;;;;;;;;;5012803;28;20683;-75
2022/05/26 04:27:53;;;;;;;3.70;2.45;;;;;;;;;;5008678;28;20025;-75
2022/05/26 04:30:19;;;;;;;2.30;2.10;;;;;;;;;;5015171;28;20068;-75
2022/05/26 04:32:45;;;;;;;4.15;2.08;;;;;;;;;;5009165;28;20066;-75
2022/05/26 04:35:12;;;;;;;5.22;2.58;;;;;;;;;;5006517;28;20444;-76
2022/05/26 04:37:38;;;;;;;3.35;2.42;;;;;;;;;;5008847;28;20021;-76
2022/05/26 04:40:04;;;;;;;4.47;2.30;;;;;;;;;;5007844;28;20492;-75
2022/05/26 04:42:30;;;;;;;3.85;2.40;;;;;;;;;;5009776;28;20616;-75
2022/05/26 04:44:57;;;;;;;4.82;3.20;;;;;;;;;;5007102;28;20081;-75
2022/05/26 04:47:23;;;;;;;4.80;2.38;;;;;;;;;;5005455;28;20315;-76
2022/05/26 04:49:49;;;;;;;5.22;2.33;;;;;;;;;;5008575;28;20104;-76
2022/05/26 04:52:17;;;;;;;4.20;2.45;;;;;;;;;;5007795;28;20029;-75
2022/05/26 04:54:44;;;;;;;4.38;2.78;;;;;;;;;;5017866;28;20037;-76
2022/05/26 04:57:11;;;;;;;8.57;2.90;;;;;;;;;;5011948;28;20090;-75
2022/05/26 04:59:38;;;;;;;5.35;3.05;;;;;;;;;;5011926;28;20081;-75
2022/05/26 05:02:04;;;;;;;6.63;2.85;;;;;;;;;;5010045;28;20030;-76
2022/05/26 05:04:30;;;;;;;6.53;2.75;;;;;;;;;;5008869;28;20025;-76
2022/05/26 05:06:57;;;;;;;4.68;2.83;;;;;;;;;;5010172;28;20097;-75
2022/05/26 05:09:23;;;;;;;5.25;2.70;;;;;;;;;;5011620;28;20423;-76
2022/05/26 05:11:50;;;;;;;7.75;2.78;;;;;;;;;;5009868;28;20030;-76
2022/05/26 05:14:19;;;;;;;6.15;3.15;;;;;;;;;;5004159;28;20034;-75
2022/05/26 05:16:45;;;;;;;5.55;2.65;;;;;;;;;;5008038;28;20037;-75
2022/05/26 05:19:16;;;;;;;4.80;2.97;;;;;;;;;;5004515;28;20022;-74
2022/05/26 05:22:08;;;;;;;6.40;2.97;;;;;;;;;;5002983;28;20084;-75
2022/05/26 05:24:39;;;;;;;2.97;2.50;;;;;;;;;;5007918;28;20049;-75
2022/05/26 05:27:07;;;;;;;7.88;3.28;;;;;;;;;;5004741;28;20492;-75
2022/05/26 05:29:36;;;;;;;4.45;2.92;;;;;;;;;;4999393;28;20041;-75
2022/05/26 05:32:09;;;;;;;9.07;3.10;;;;;;;;;;5007906;28;20640;-76
2022/05/26 05:34:38;;;;;;;4.38;2.78;;;;;;;;;;5008164;28;20029;-75
2022/05/26 05:37:05;;;;;;;10.40;3.00;;;;;;;;;;5003371;28;20034;-75
2022/05/26 05:39:31;;;;;;;5.78;3.25;;;;;;;;;;5007536;28;20484;-76
2022/05/26 05:41:58;;;;;;;6.70;3.58;;;;;;;;;;5006489;28;20396;-76
2022/05/26 05:44:24;;;;;;;4.95;3.05;;;;;;;;;;5008463;28;20080;-75
2022/05/26 05:46:59;;;;;;;6.00;2.80;;;;;;;;;;5002905;28;20496;-75
2022/05/26 05:49:27;;;;;;;3.55;2.90;;;;;;;;;;5007388;28;20049;-76
2022/05/26 05:51:53;;;;;;;5.05;2.75;;;;;;;;;;5002151;28;20030;-75
2022/05/26 05:54:20;;;;;;;6.47;2.97;;;;;;;;;;5007523;28;20086;-76
2022/05/26 05:56:47;;;;;;;3.72;2.55;;;;;;;;;;5009386;28;20491;-76
2022/05/26 05:59:13;;;;;;;6.45;2.95;;;;;;;;;;5007034;28;20609;-75
2022/05/26 06:01:39;;;;;;;3.40;2.67;;;;;;;;;;5009897;28;20488;-75
2022/05/26 06:04:05;;;;;;;4.32;2.65;;;;;;;;;;5007621;28;20095;-76
2022/05/26 06:06:38;;;;;;;4.95;2.75;;;;;;;;;;5014092;28;20029;-76
2022/05/26 06:09:05;;;;;;;5.13;2.67;;;;;;;;;;5010267;28;20048;-76
2022/05/26 06:11:31;;;;;;;6.40;2.50;;;;;;;;;;5007655;28;20026;-76
2022/05/26 06:13:58;;;;;;;3.00;2.55;;;;;;;;;;5004809;28;20029;-76
2022/05/26 06:16:24;;;;;;;4.57;2.38;;;;;;;;;;5012551;28;20032;-75
2022/05/26 06:18:50;;;;;;;4.22;2.47;;;;;;;;;;5000628;28;20026;-76
2022/05/26 06:21:17;;;;;;;4.25;2.67;;;;;;;;;;5000739;28;20049;-76
2022/05/26 06:23:43;;;;;;;4.03;2.40;;;;;;;;;;5004056;28;20625;-74
2022/05/26 06:26:09;;;;;;;4.95;2.63;;;;;;;;;;5001934;28;20030;-75
2022/05/26 06:31:22;;;;;;;4.38;2.22;;;;;;;;;;5002788;28;20037;-75
2022/05/26 06:39:18;;;;;;;4.57;2.87;;;;;;;;;;5004364;28;20105;-76
2022/05/26 06:44:29;;;;;;;6.35;3.10;;;;;;;;;;5004552;28;20165;-75
2022/05/26 06:46:55;;;;;;;2.58;2.08;;;;;;;;;;4999740;28;20054;-75
2022/05/26 06:49:21;;;;;;;2.72;2.15;;;;;;;;;;5000729;28;20488;-76
2022/05/26 06:51:47;;;;;;;4.18;2.47;;;;;;;;;;5001328;28;20038;-77
2022/05/26 06:54:13;;;;;;;3.38;2.30;;;;;;;;;;5001294;28;20033;-76
2022/05/26 06:56:39;;;;;;;2.72;2.03;;;;;;;;;;5001830;28;20397;-76
2022/05/26 06:59:06;;;;;;;2.72;2.13;;;;;;;;;;5003811;28;20034;-76
2022/05/26 07:01:32;;;;;;;2.47;1.70;;;;;;;;;;5004269;28;20057;-76
2022/05/26 07:03:58;;;;;;;2.58;1.67;;;;;;;;;;5012767;28;20451;-76
2022/05/26 07:06:26;;;;;;;3.58;1.95;;;;;;;;;;5004805;28;20052;-76
2022/05/26 07:08:53;;;;;;;3.95;2.17;;;;;;;;;;5002854;28;20029;-77
2022/05/26 07:11:19;;;;;;;2.97;1.90;;;;;;;;;;5002462;28;20112;-76
2022/05/26 07:13:46;;;;;;;2.20;1.65;;;;;;;;;;5002812;28;20358;-78
2022/05/26 07:16:12;;;;;;;2.58;1.70;;;;;;;;;;4994861;28;20139;-76
2022/05/26 07:18:39;;;;;;;3.45;2.30;;;;;;;;;;5003282;28;20025;-75
2022/05/26 07:21:06;;;;;;;2.03;1.38;;;;;;;;;;5006972;28;20080;-76
2022/05/26 07:23:33;;;;;;;3.08;1.70;;;;;;;;;;5007010;28;20406;-76
2022/05/26 07:25:59;;;;;;;3.45;1.52;;;;;;;;;;5003525;28;20041;-78
2022/05/26 07:28:26;;;;;;;3.28;1.58;;;;;;;;;;5000297;28;20025;-75
2022/05/26 07:30:52;;;;;;;1.88;1.52;;;;;;;;;;5005107;28;20734;-74
2022/05/26 07:33:19;;;;;;;2.25;2.03;;;;;;;;;;5003054;28;20041;-73
2022/05/26 07:35:46;;;;;;;2.13;1.60;;;;;;;;;;5007156;28;20298;-76
2022/05/26 07:43:42;;;;;;;2.47;1.55;;;;;;;;;;5003646;28;20037;-76
2022/05/26 07:46:10;;;;;;;2.33;1.50;;;;;;;;;;5004263;28;20073;-76
2022/05/26 07:48:37;;;;;;;1.45;1.35;;;;;;;;;;5005072;28;20267;-75
2022/05/26 07:51:03;;;;;;;1.55;1.45;;;;;;;;;;5002143;28;20033;-75
2022/05/26 07:53:29;;;;;;;1.55;1.45;;;;;;;;;;5020575;28;20088;-76
2022/05/26 07:55:55;;;;;;;1.40;1.30;;;;;;;;;;5003198;28;20025;-76
2022/05/26 07:58:21;;;;;;;1.50;1.30;;;;;;;;;;5003657;28;20038;-76
2022/05/26 08:00:48;;;;;;;1.40;1.30;;;;;;;;;;5001309;28;20463;-75
2022/05/26 08:03:14;;;;;;;1.98;1.25;;;;;;;;;;5005086;28;20041;-76
2022/05/26 08:05:41;;;;;;;1.48;1.38;;;;;;;;;;5004151;28;20123;-75
2022/05/26 08:08:07;;;;;;;1.88;1.30;;;;;;;;;;4999203;28;20026;-77
2022/05/26 08:10:33;;;;;;;1.67;1.33;;;;;;;;;;5004303;28;20111;-77
2022/05/26 08:13:00;;;;;;;1.48;1.25;;;;;;;;;;5001399;28;20491;-76
2022/05/26 08:15:26;;;;;;;1.63;1.42;;;;;;;;;;5001548;28;21117;-76
2022/05/26 08:17:52;;;;;;;1.48;1.38;;;;;;;;;;5001918;28;20030;-76
2022/05/26 08:20:18;;;;;;;1.50;1.40;;;;;;;;;;5000001;28;20037;-75
2022/05/26 08:22:45;;;;;;;1.05;1.05;;;;;;;;;;5010218;28;20026;-75
2022/05/26 08:25:11;;;;;;;1.40;1.30;;;;;;;;;;5008200;28;20369;-76
2022/05/26 08:27:37;;;;;;;1.40;1.30;;;;;;;;;;5011857;28;20033;-78
2022/05/26 08:30:05;;;;;;;1.35;0.95;;;;;;;;;;5008950;28;20781;-75
2022/05/26 08:32:32;;;;;;;1.38;1.25;;;;;;;;;;5005116;28;20026;-74
2022/05/26 08:35:03;;;;;;;1.20;1.20;;;;;;;;;;5004362;28;20508;-74
2022/05/26 08:37:29;;;;;;;1.00;1.00;;;;;;;;;;5006605;28;20030;-75
2022/05/26 08:39:55;;;;;;;1.15;1.10;;;;;;;;;;5003986;28;20148;-75
2022/05/26 08:42:29;;;;;;;1.30;1.27;;;;;;;;;;5007101;28;21405;-73
2022/05/26 08:44:57;;;;;;;0.93;0.93;;;;;;;;;;5005319;28;20180;-75
2022/05/26 08:47:28;;;;;;;1.17;1.17;;;;;;;;;;5009991;28;20029;-75
2022/05/26 08:49:58;;;;;;;1.02;0.98;;;;;;;;;;5008336;28;20072;-73
2022/05/26 08:52:29;;;;;;;1.08;1.08;;;;;;;;;;5008222;28;20073;-76
2022/05/26 08:55:01;;;;;;;1.25;1.15;;;;;;;;;;5010010;28;20400;-76
2022/05/26 08:57:40;;;;;;;1.00;1.00;;;;;;;;;;5008461;28;20064;-75
2022/05/26 09:00:11;;;;;;;1.27;1.27;;;;;;;;;;5007511;28;20034;-77
2022/05/26 09:02:38;;;;;;;1.20;1.20;;;;;;;;;;5009888;28;20033;-78
2022/05/26 09:05:06;;;;;;;1.20;1.10;;;;;;;;;;5005055;28;20034;-77
2022/05/26 09:13:32;;;;;;;1.10;1.10;;;;;;;;;;4965598;28;20043;-76
2022/05/26 09:16:03;;;;;;;1.17;1.10;;;;;;;;;;5003904;28;20567;-76
2022/05/26 09:18:29;;;;;;;1.30;1.20;;;;;;;;;;5008176;28;20052;-76
2022/05/26 09:21:11;;;;;;;1.17;1.17;;;;;;;;;;5008337;28;20030;-78
2022/05/26 09:23:39;;;;;;;1.15;1.15;;;;;;;;;;5007813;28;20075;-76
2022/05/26 09:26:09;;;;;;;1.17;1.17;;;;;;;;;;5006210;28;20044;-75
2022/05/26 09:28:38;;;;;;;1.25;1.15;;;;;;;;;;5003571;28;20127;-76
2022/05/26 09:31:23;;;;;;;1.70;1.60;;;;;;;;;;5001198;28;20022;-78
2022/05/26 09:34:00;;;;;;;1.85;1.27;;;;;;;;;;5004565;28;20029;-76
2022/05/26 09:36:28;;;;;;;2.10;1.38;;;;;;;;;;5005613;28;20080;-75
2022/05/26 09:38:55;;;;;;;2.72;2.00;;;;;;;;;;5004516;28;20037;-76
2022/05/26 09:41:21;;;;;;;1.27;1.20;;;;;;;;;;5008256;28;20637;-75
2022/05/26 09:43:51;;;;;;;1.17;1.17;;;;;;;;;;4998631;28;20319;-76
2022/05/26 09:46:18;;;;;;;1.30;1.30;;;;;;;;;;5019302;28;20614;-75
2022/05/26 09:48:46;;;;;;;1.40;1.30;;;;;;;;;;5004060;28;20040;-77
2022/05/26 09:51:16;;;;;;;1.50;1.40;;;;;;;;;;5003872;28;20029;-76
2022/05/26 09:53:43;;;;;;;1.33;1.33;;;;;;;;;;5007909;28;20064;-76
2022/05/26 09:56:14;;;;;;;1.60;1.50;;;;;;;;;;5015793;28;20111;-75
2022/05/26 09:58:42;;;;;;;1.60;1.50;;;;;;;;;;5007516;28;20454;-76
2022/05/26 10:01:24;;;;;;;1.40;1.35;;;;;;;;;;5005519;28;20030;-77
2022/05/26 10:03:55;;;;;;;1.20;1.20;;;;;;;;;;5017799;28;20048;-76
2022/05/26 10:06:33;;;;;;;1.80;1.70;;;;;;;;;;5004678;28;20018;-77
2022/05/26 10:09:02;;;;;;;3.95;2.40;;;;;;;;;;5002923;28;20527;-75
2022/05/26 10:11:31;;;;;;;1.15;1.15;;;;;;;;;;5005108;28;20032;-76
2022/05/26 10:14:15;;;;;;;1.13;1.13;;;;;;;;;;5005103;28;20173;-76
2022/05/26 10:16:44;;;;;;;1.10;1.10;;;;;;;;;;5004404;28;20034;-76
2022/05/26 10:19:24;;;;;;;1.27;1.13;;;;;;;;;;5003202;28;20483;-75
2022/05/26 10:22:01;;;;;;;1.00;1.00;;;;;;;;;;5004350;28;20567;-76
2022/05/26 10:24:50;;;;;;;1.08;1.08;;;;;;;;;;5001923;28;20061;-76
2022/05/26 10:27:24;;;;;;;1.40;1.30;;;;;;;;;;5003034;28;20033;-75
2022/05/26 10:29:53;;;;;;;1.20;1.20;;;;;;;;;;5002664;28;20026;-76
2022/05/26 10:32:19;;;;;;;1.25;1.20;;;;;;;;;;5003221;28;20643;-76
2022/05/26 10:34:55;;;;;;;1.50;1.40;;;;;;;;;;5005211;28;20030;-76
2022/05/26 10:37:53;;;;;;;1.20;1.10;;;;;;;;;;5000289;28;20571;-76
2022/05/26 10:40:22;;;;;;;2.30;1.30;;;;;;;;;;4992324;28;20038;-77
2022/05/26 10:42:55;;;;;;;1.10;1.10;;;;;;;;;;5002717;28;20037;-76
2022/05/26 10:45:42;;;;;;;1.23;1.23;;;;;;;;;;5001367;28;20046;-77
2022/05/26 10:48:18;;;;;;;1.85;1.75;;;;;;;;;;5005652;28;20069;-76
2022/05/26 10:51:05;;;;;;;1.10;1.10;;;;;;;;;;5006098;28;20030;-75
2022/05/26 10:53:37;;;;;;;1.20;1.20;;;;;;;;;;5007846;28;20129;-76
2022/05/26 10:56:22;;;;;;;1.45;1.10;;;;;;;;;;5024227;28;20039;-76
2022/05/26 10:59:08;;;;;;;1.13;1.13;;;;;;;;;;5007929;28;20050;-77
2022/05/26 11:01:36;;;;;;;1.00;1.00;;;;;;;;;;5004019;28;20120;-77
2022/05/26 11:04:08;;;;;;;1.48;1.30;;;;;;;;;;5012593;28;20033;-77
2022/05/26 11:06:35;;;;;;;1.10;1.10;;;;;;;;;;5007453;28;20041;-76
2022/05/26 11:09:07;;;;;;;1.10;1.10;;;;;;;;;;5005461;28;20069;-75
2022/05/26 11:11:37;;;;;;;1.23;1.17;;;;;;;;;;5008003;28;20025;-77
2022/05/26 11:17:22;;;;;;;1.10;1.10;;;;;;;;;;5009459;28;20040;-76
2022/05/26 11:19:51;;;;;;;1.08;1.08;;;;;;;;;;5007692;28;20083;-76
2022/05/26 11:22:17;;;;;;;1.08;1.00;;;;;;;;;;5009645;28;20492;-74
2022/05/26 11:24:50;;;;;;;1.02;1.02;;;;;;;;;;5009113;28;20044;-75
2022/05/26 11:27:25;;;;;;;1.20;1.20;;;;;;;;;;5009426;28;20030;-75
2022/05/26 11:30:06;;;;;;;1.33;1.08;;;;;;;;;;5004223;28;20145;-75
2022/05/26 11:38:06;;;;;;;1.10;1.10;;;;;;;;;;5004321;28;20449;-75
2022/05/26 11:40:35;;;;;;;2.38;1.10;;;;;;;;;;5003116;28;20428;-76
2022/05/26 11:43:05;;;;;;;1.00;1.00;;;;;;;;;;5002543;28;20030;-75
2022/05/26 11:45:36;;;;;;;1.48;1.38;;;;;;;;;;5000925;28;20038;-76
2022/05/26 11:48:02;;;;;;;1.20;1.20;;;;;;;;;;5005094;28;20054;-74
2022/05/26 11:50:51;;;;;;;1.20;1.20;;;;;;;;;;5002072;28;20040;-74
2022/05/26 11:53:41;;;;;;;1.17;1.17;;;;;;;;;;5004360;28;20076;-75
2022/05/26 11:56:30;;;;;;;1.65;1.30;;;;;;;;;;4999323;28;20412;-72
2022/05/26 11:59:15;;;;;;;1.38;1.20;;;;;;;;;;5005210;28;20148;-76
2022/05/26 12:01:41;;;;;;;1.93;1.17;;;;;;;;;;5004626;28;20542;-76
2022/05/26 12:04:07;;;;;;;1.10;1.10;;;;;;;;;;5004004;28;20321;-76
2022/05/26 12:06:42;;;;;;;1.10;1.10;;;;;;;;;;5007645;28;20030;-75
2022/05/26 12:09:13;;;;;;;1.23;1.15;;;;;;;;;;5007928;28;20780;-76
2022/05/26 12:11:54;;;;;;;2.00;1.30;;;;;;;;;;5015209;28;20442;-76
2022/05/26 12:14:28;;;;;;;1.20;1.20;;;;;;;;;;5007495;28;20041;-76
2022/05/26 12:17:14;;;;;;;1.20;1.15;;;;;;;;;;5008772;28;20808;-75
2022/05/26 12:19:45;;;;;;;1.50;1.40;;;;;;;;;;5008331;28;20566;-76
2022/05/26 12:22:14;;;;;;;1.35;1.35;;;;;;;;;;5003566;28;20026;-76
2022/05/26 12:24:48;;;;;;;1.42;1.33;;;;;;;;;;5008446;28;20045;-77
2022/05/26 12:27:14;;;;;;;1.70;1.60;;;;;;;;;;5015892;28;20014;-76
2022/05/26 12:29:51;;;;;;;1.50;1.40;;;;;;;;;;5009309;28;20072;-75
2022/05/26 12:32:27;;;;;;;1.20;1.20;;;;;;;;;;5005038;28;20053;-76
2022/05/26 12:35:20;;;;;;;1.73;1.50;;;;;;;;;;5009779;28;20076;-77
2022/05/26 12:37:48;;;;;;;2.10;1.10;;;;;;;;;;5003243;28;20050;-77
2022/05/26 12:40:33;;;;;;;1.30;1.30;;;;;;;;;;5005132;28;20122;-78
2022/05/26 12:43:08;;;;;;;1.20;1.20;;;;;;;;;;5005648;28;20041;-76
2022/05/26 12:45:40;;;;;;;2.95;1.30;;;;;;;;;;5009172;28;20050;-77
2022/05/26 12:48:26;;;;;;;1.77;1.48;;;;;;;;;;5009367;28;20025;-78
2022/05/26 12:50:52;;;;;;;1.48;1.38;;;;;;;;;;5008998;28;20057;-77
2022/05/26 12:53:18;;;;;;;2.97;1.50;;;;;;;;;;5010332;28;20034;-77
2022/05/26 12:55:47;;;;;;;1.40;1.30;;;;;;;;;;5021165;28;20145;-76
2022/05/26 12:58:19;;;;;;;1.80;1.70;;;;;;;;;;5020860;28;20041;-78
2022/05/26 13:00:50;;;;;;;1.40;1.30;;;;;;;;;;5001855;28;20802;-77
2022/05/26 13:03:19;;;;;;;1.65;1.55;;;;;;;;;;5020318;28;20093;-75
2022/05/26 13:05:52;;;;;;;1.42;1.33;;;;;;;;;;5001286;28;20030;-75
2022/05/26 13:08:23;;;;;;;1.25;1.20;;;;;;;;;;5004449;28;20502;-76
2022/05/26 13:10:51;;;;;;;1.38;1.30;;;;;;;;;;5006869;28;20040;-76
2022/05/26 13:13:35;;;;;;;1.98;1.33;;;;;;;;;;5000864;28;20038;-76
2022/05/26 13:16:21;;;;;;;1.25;1.23;;;;;;;;;;5017116;28;20038;-76
2022/05/26 13:18:48;;;;;;;1.42;1.33;;;;;;;;;;5004381;28;20030;-75
2022/05/26 13:21:32;;;;;;;1.27;1.17;;;;;;;;;;5006850;28;20029;-77
2022/05/26 13:23:58;;;;;;;1.33;1.23;;;;;;;;;;5007124;28;20491;-77
2022/05/26 13:26:25;;;;;;;1.65;1.55;;;;;;;;;;5011071;28;20042;-78
2022/05/26 13:28:53;;;;;;;1.40;1.30;;;;;;;;;;5015170;28;20096;-74
2022/05/26 13:34:13;;;;;;;1.40;1.30;;;;;;;;;;5011493;28;20041;-76
2022/05/26 13:36:41;;;;;;;1.55;1.30;;;;;;;;;;5013301;28;20124;-76
2022/05/26 13:39:15;;;;;;;2.40;1.30;;;;;;;;;;5005307;28;20038;-75
2022/05/26 13:41:42;;;;;;;2.33;1.30;;;;;;;;;;5008176;28;20410;-76
2022/05/26 13:44:10;;;;;;;1.40;1.30;;;;;;;;;;5007612;28;20677;-77
2022/05/26 13:47:04;;;;;;;1.35;1.25;;;;;;;;;;5006746;28;20073;-75
2022/05/26 13:49:34;;;;;;;1.48;1.30;;;;;;;;;;5008095;28;20117;-77
2022/05/26 13:52:29;;;;;;;3.78;1.55;;;;;;;;;;5008940;28;20048;-77
2022/05/26 13:54:56;;;;;;;2.92;1.60;;;;;;;;;;5003038;28;20053;-77
2022/05/26 13:57:42;;;;;;;1.48;1.38;;;;;;;;;;5003999;28;20899;-76
2022/05/26 14:00:08;;;;;;;1.88;1.60;;;;;;;;;;5004419;28;20041;-76
2022/05/26 14:02:36;;;;;;;1.85;1.75;;;;;;;;;;5005174;28;20029;-77
2022/05/26 14:05:14;;;;;;;3.55;1.83;;;;;;;;;;5003937;28;20507;-78
2022/05/26 14:07:42;;;;;;;1.85;1.70;;;;;;;;;;5002840;28;20122;-78
2022/05/26 14:10:20;;;;;;;2.35;1.60;;;;;;;;;;5008976;28;20109;-77
2022/05/26 14:13:02;;;;;;;2.58;2.38;;;;;;;;;;5017027;28;20778;-77
2022/05/26 14:15:47;;;;;;;2.67;1.80;;;;;;;;;;5002760;28;20475;-78
2022/05/26 14:18:27;;;;;;;2.03;1.83;;;;;;;;;;5003671;28;20069;-76
2022/05/26 14:20:58;;;;;;;3.03;1.65;;;;;;;;;;5004691;28;20040;-77
2022/05/26 14:23:25;;;;;;;2.38;1.60;;;;;;;;;;5003300;28;20136;-77
2022/05/26 14:26:17;;;;;;;5.47;1.98;;;;;;;;;;5004494;28;20483;-78
2022/05/26 14:28:43;;;;;;;2.90;1.60;;;;;;;;;;5019835;28;20444;-77
2022/05/26 14:31:20;;;;;;;2.53;1.80;;;;;;;;;;5005119;28;20029;-78
2022/05/26 14:34:06;;;;;;;2.47;1.67;;;;;;;;;;5010046;28;20100;-77
2022/05/26 14:36:34;;;;;;;6.70;2.45;;;;;;;;;;5005638;28;20045;-77
2022/05/26 14:39:00;;;;;;;6.22;3.42;;;;;;;;;;5008448;28;20030;-77
2022/05/26 14:41:27;;;;;;;6.22;3.05;;;;;;;;;;5003307;28;20156;-76
2022/05/26 14:43:58;;;;;;;3.10;2.10;;;;;;;;;;5009165;28;20080;-77
2022/05/26 14:46:24;;;;;;;2.95;2.40;;;;;;;;;;5007866;28;20428;-76
2022/05/26 14:49:01;;;;;;;2.97;2.00;;;;;;;;;;5013280;28;20034;-77
2022/05/26 14:51:28;;;;;;;6.65;3.17;;;;;;;;;;5015456;28;20418;-77
2022/05/26 14:56:40;;;;;;;2.85;2.08;;;;;;;;;;5005678;28;20048;-77
2022/05/26 14:59:07;;;;;;;3.75;2.30;;;;;;;;;;5006494;28;20029;-77
2022/05/26 15:01:33;;;;;;;3.90;2.15;;;;;;;;;;5004752;28;20562;-77
2022/05/26 15:03:59;;;;;;;4.22;2.40;;;;;;;;;;5010282;28;20042;-76
2022/05/26 15:06:32;;;;;;;3.70;2.15;;;;;;;;;;5009994;28;20080;-75
2022/05/26 15:08:58;;;;;;;5.25;2.00;;;;;;;;;;5018238;28;20582;-76
2022/05/26 15:11:24;;;;;;;2.40;1.67;;;;;;;;;;5006142;28;20571;-77
2022/05/26 15:13:52;;;;;;;4.93;2.22;;;;;;;;;;5004961;28;20147;-78
2022/05/26 15:16:21;;;;;;;2.97;2.42;;;;;;;;;;5008604;28;20034;-75
2022/05/26 15:18:47;;;;;;;2.97;2.08;;;;;;;;;;5009917;28;20156;-77
2022/05/26 15:21:13;;;;;;;3.53;1.92;;;;;;;;;;5005910;28;20492;-76
2022/05/26 15:23:39;;;;;;;6.35;2.72;;;;;;;;;;5016010;28;20033;-76
2022/05/26 15:26:09;;;;;;;5.20;2.00;;;;;;;;;;5002456;28;20156;-76
2022/05/26 15:28:40;;;;;;;3.88;2.28;;;;;;;;;;5003556;28;20044;-76
2022/05/26 15:31:06;;;;;;;3.97;2.08;;;;;;;;;;5004253;28;20476;-76
2022/05/26 15:33:32;;;;;;;6.32;2.50;;;;;;;;;;5007118;28;20056;-75
2022/05/26 15:35:58;;;;;;;5.28;2.10;;;;;;;;;;4999121;28;20087;-75
2022/05/26 15:38:25;;;;;;;5.45;2.22;;;;;;;;;;5010730;28;20819;-77
2022/05/26 15:40:51;;;;;;;7.07;2.50;;;;;;;;;;5004170;28;20034;-75
2022/05/26 15:43:18;;;;;;;5.82;2.33;;;;;;;;;;5006192;28;20437;-77
2022/05/26 15:45:46;;;;;;;7.18;2.38;;;;;;;;;;4992482;28;20056;-76